Terminal Aerodrome Forecast
Issued by NWS Tulsa, OK

Home | Current Version | Previous Version | Text Only | Print | Product List | Glossary On
Versions: 1 2 3 4 5 6 7 8 9 10 11 12 13
000
FTUS44 KTSA 301100
TAFFSM
TAF
KFSM 301120Z 3012/3112 34005KT P6SM SCT250
     FM301500 08004KT P6SM BKN250
     FM310100 08003KT P6SM BKN100=

USA.gov is the U.S. government's official web portal to all federal, state and local government web resources and services.